Time;durP1;ratioP1;P1;durP2;ratioP2;P2;SDS_P1;SDS_P2;PMS_P1;PMS_P2;Temp;Humidity;BMP_temperature;BMP_pressure;BME280_temperature;BME280_humidity;BME280_pressure;Samples;Min_cycle;Max_cycle;Signal;HPM_P1;HPM_P2
2021/07/30 00:00:57;;;;;;;6.43;4.47;;;20.00;99.90;;;;;;4983771;28;20196;-71
2021/07/30 00:03:23;;;;;;;5.60;4.17;;;19.80;99.90;;;;;;4982160;28;20197;-71
2021/07/30 00:05:50;;;;;;;5.20;4.77;;;20.20;99.90;;;;;;4985837;28;20818;-71
2021/07/30 00:08:17;;;;;;;4.63;4.23;;;20.10;99.90;;;;;;4983773;28;20872;-71
2021/07/30 00:10:43;;;;;;;8.00;4.20;;;20.20;99.90;;;;;;4986275;28;20429;-71
2021/07/30 00:13:08;;;;;;;8.73;4.93;;;20.20;99.90;;;;;;4968402;28;20455;-71
2021/07/30 00:15:34;;;;;;;6.27;4.20;;;20.30;99.90;;;;;;4982897;28;20218;-71
2021/07/30 00:18:00;;;;;;;7.60;4.70;;;20.00;99.90;;;;;;4985205;28;21191;-71
2021/07/30 00:20:25;;;;;;;6.20;5.17;;;19.80;99.90;;;;;;4985037;28;20621;-70
2021/07/30 00:22:51;;;;;;;6.50;5.00;;;19.80;99.90;;;;;;4988281;28;21497;-71
2021/07/30 00:25:17;;;;;;;5.40;4.90;;;20.10;99.90;;;;;;4986931;28;20210;-71
2021/07/30 00:27:42;;;;;;;4.13;3.80;;;20.10;99.90;;;;;;5001401;28;20205;-71
2021/07/30 00:30:10;;;;;;;4.40;3.97;;;20.10;99.90;;;;;;5004260;28;20576;-71
2021/07/30 00:32:35;;;;;;;6.10;4.40;;;19.80;99.90;;;;;;5004077;28;20188;-71
2021/07/30 00:35:01;;;;;;;9.67;4.60;;;19.80;99.90;;;;;;5002725;28;20531;-70
2021/07/30 00:37:27;;;;;;;7.37;3.97;;;19.80;99.90;;;;;;4992203;28;20186;-71
2021/07/30 00:39:52;;;;;;;5.90;4.10;;;19.90;99.90;;;;;;4983159;28;20194;-71
2021/07/30 00:42:18;;;;;;;4.23;3.83;;;19.70;99.90;;;;;;4984723;28;20972;-72
2021/07/30 00:44:43;;;;;;;5.60;4.17;;;19.90;99.90;;;;;;4984373;28;20209;-72
2021/07/30 00:47:10;;;;;;;4.27;3.87;;;19.70;99.90;;;;;;4983460;28;20194;-71
2021/07/30 00:49:35;;;;;;;5.50;4.27;;;19.60;99.90;;;;;;4983709;28;20622;-71
2021/07/30 00:52:02;;;;;;;5.00;4.50;;;19.80;99.90;;;;;;4985244;28;20433;-71
2021/07/30 00:54:28;;;;;;;4.33;3.93;;;19.90;99.90;;;;;;4983804;28;20307;-73
2021/07/30 00:56:54;;;;;;;6.67;4.00;;;19.50;99.90;;;;;;4983677;28;20952;-72
2021/07/30 00:59:22;;;;;;;4.53;4.13;;;19.20;99.90;;;;;;4984111;28;20217;-71
2021/07/30 01:01:49;;;;;;;8.60;4.53;;;19.50;99.90;;;;;;4982653;28;20440;-70
2021/07/30 01:04:15;;;;;;;4.30;3.90;;;19.70;99.90;;;;;;4986120;28;20499;-71
2021/07/30 01:06:41;;;;;;;4.53;3.77;;;19.70;99.90;;;;;;4985057;28;20876;-72
2021/07/30 01:09:07;;;;;;;5.40;4.10;;;19.60;99.90;;;;;;4986475;28;20197;-71
2021/07/30 01:11:33;;;;;;;5.60;4.63;;;19.40;99.90;;;;;;4983490;28;20657;-71
2021/07/30 01:13:59;;;;;;;7.33;4.60;;;19.50;99.90;;;;;;4984615;28;20465;-71
2021/07/30 01:16:25;;;;;;;5.37;3.93;;;19.70;99.90;;;;;;4989881;28;20817;-71
2021/07/30 01:18:51;;;;;;;5.77;4.20;;;19.80;99.90;;;;;;4990130;28;20272;-71
2021/07/30 01:21:26;;;;;;;9.33;4.50;;;19.70;99.90;;;;;;4990104;28;20182;-70
2021/07/30 01:23:52;;;;;;;4.63;3.73;;;19.80;99.90;;;;;;4985085;28;20204;-72
2021/07/30 01:26:21;;;;;;;5.00;4.10;;;19.90;99.90;;;;;;4984483;28;20477;-71
2021/07/30 01:28:49;;;;;;;4.53;4.13;;;19.60;99.90;;;;;;4984284;28;20240;-71
2021/07/30 01:31:15;;;;;;;6.80;4.10;;;19.90;99.90;;;;;;4987359;28;20452;-71
2021/07/30 01:33:41;;;;;;;4.17;3.67;;;19.80;99.90;;;;;;4988204;28;20461;-72
2021/07/30 01:36:10;;;;;;;5.33;4.27;;;19.40;99.90;;;;;;4986572;28;20336;-72
2021/07/30 01:38:35;;;;;;;4.80;4.30;;;19.20;99.90;;;;;;4988080;28;20815;-72
2021/07/30 01:41:11;;;;;;;4.40;3.93;;;19.40;99.90;;;;;;4986097;28;20524;-70
2021/07/30 01:43:42;;;;;;;6.33;4.17;;;19.60;99.90;;;;;;4989549;28;20648;-70
2021/07/30 01:46:07;;;;;;;3.77;3.47;;;19.90;99.90;;;;;;4987529;28;20459;-69
2021/07/30 01:48:33;;;;;;;6.13;4.07;;;20.00;99.90;;;;;;4986983;28;20416;-70
2021/07/30 01:50:59;;;;;;;5.10;4.60;;;19.80;99.90;;;;;;4985122;28;20194;-70
2021/07/30 01:53:25;;;;;;;4.50;3.90;;;19.80;99.90;;;;;;4987020;28;20424;-71
2021/07/30 01:55:51;;;;;;;4.73;4.33;;;19.70;99.90;;;;;;4971358;28;20225;-72
2021/07/30 01:58:16;;;;;;;4.63;4.10;;;19.70;99.90;;;;;;4986067;28;20205;-70
2021/07/30 02:00:42;;;;;;;12.60;4.80;;;19.60;99.90;;;;;;4988333;28;20186;-70
2021/07/30 02:03:08;;;;;;;4.83;4.40;;;19.70;99.90;;;;;;4986100;28;20190;-70
2021/07/30 02:05:36;;;;;;;7.03;4.37;;;19.90;99.90;;;;;;4987968;28;20704;-71
2021/07/30 02:08:02;;;;;;;5.33;4.27;;;20.10;99.90;;;;;;4985284;28;20197;-71
2021/07/30 02:10:28;;;;;;;4.97;4.47;;;20.20;99.90;;;;;;4988546;28;20425;-71
2021/07/30 02:15:38;;;;;;;4.50;4.03;;;20.30;99.90;;;;;;4987231;28;20332;-70
2021/07/30 02:18:03;;;;;;;4.23;3.83;;;20.20;99.90;;;;;;4987327;28;20829;-70
2021/07/30 02:20:29;;;;;;;5.20;4.80;;;20.20;99.90;;;;;;4987117;28;20185;-71
2021/07/30 02:22:55;;;;;;;5.30;4.33;;;20.20;99.90;;;;;;4986494;28;20182;-72
2021/07/30 02:25:20;;;;;;;6.00;4.67;;;20.10;99.90;;;;;;4989239;28;20288;-72
2021/07/30 02:27:46;;;;;;;4.50;4.13;;;19.90;99.90;;;;;;4987965;28;20240;-70
2021/07/30 02:30:12;;;;;;;4.37;3.97;;;19.90;99.90;;;;;;4988905;28;20188;-71
2021/07/30 02:32:37;;;;;;;4.30;3.83;;;19.80;99.90;;;;;;4981433;28;20214;-71
2021/07/30 02:35:04;;;;;;;4.70;4.03;;;19.90;99.90;;;;;;4987832;28;20213;-71
2021/07/30 02:37:30;;;;;;;4.70;4.30;;;20.00;99.90;;;;;;4987604;28;20176;-71
2021/07/30 02:39:55;;;;;;;4.97;4.47;;;20.10;99.90;;;;;;4983412;28;20437;-72
2021/07/30 02:42:21;;;;;;;5.30;4.40;;;19.90;99.90;;;;;;4986083;28;20662;-70
2021/07/30 02:44:47;;;;;;;4.90;4.40;;;19.80;99.90;;;;;;4989528;28;20237;-71
2021/07/30 02:47:12;;;;;;;4.97;4.47;;;19.90;99.90;;;;;;4989276;28;20555;-71
2021/07/30 02:49:38;;;;;;;5.20;4.70;;;20.00;99.90;;;;;;4976037;28;20196;-71
2021/07/30 02:52:04;;;;;;;6.37;4.63;;;20.00;99.90;;;;;;4977499;28;20842;-71
2021/07/30 02:54:29;;;;;;;6.00;4.97;;;19.80;99.90;;;;;;4985987;28;20215;-71
2021/07/30 02:56:55;;;;;;;5.13;4.63;;;19.90;99.90;;;;;;4994275;28;20792;-71
2021/07/30 02:59:21;;;;;;;5.57;4.33;;;20.20;99.90;;;;;;4988889;28;20200;-71
2021/07/30 03:01:46;;;;;;;7.37;4.70;;;20.30;99.90;;;;;;4991627;28;20182;-71
2021/07/30 03:04:12;;;;;;;4.53;4.10;;;20.30;99.90;;;;;;4989591;28;20562;-71
2021/07/30 03:06:37;;;;;;;6.00;4.40;;;20.30;99.90;;;;;;4987653;28;20965;-71
2021/07/30 03:09:03;;;;;;;4.37;3.93;;;20.10;99.90;;;;;;4988167;28;20196;-71
2021/07/30 03:11:29;;;;;;;5.37;4.63;;;20.20;99.90;;;;;;4990371;28;20220;-72
2021/07/30 03:13:54;;;;;;;5.37;4.33;;;20.10;99.90;;;;;;4990211;28;20304;-71
2021/07/30 03:16:20;;;;;;;6.00;5.27;;;20.30;99.90;;;;;;4989022;28;20898;-71
2021/07/30 03:18:45;;;;;;;4.93;4.40;;;20.40;99.90;;;;;;4989365;28;20998;-72
2021/07/30 03:21:11;;;;;;;4.70;4.30;;;20.50;99.90;;;;;;4990638;28;20188;-72
2021/07/30 03:23:37;;;;;;;4.70;4.13;;;20.50;99.90;;;;;;4989970;28;20177;-70
2021/07/30 03:26:03;;;;;;;5.30;4.67;;;20.50;99.90;;;;;;4990580;28;20213;-71
2021/07/30 03:28:28;;;;;;;4.50;4.03;;;20.30;99.90;;;;;;4985872;28;20185;-72
2021/07/30 03:30:59;;;;;;;4.80;4.40;;;20.20;99.90;;;;;;4992262;28;20546;-71
2021/07/30 03:33:25;;;;;;;5.70;4.70;;;20.30;99.90;;;;;;4990944;28;20675;-70
2021/07/30 03:35:50;;;;;;;4.60;4.20;;;20.20;99.90;;;;;;4993553;28;20472;-71
2021/07/30 03:38:16;;;;;;;4.53;4.13;;;19.90;99.90;;;;;;4988562;28;20221;-71
2021/07/30 03:40:42;;;;;;;5.13;4.63;;;19.80;99.90;;;;;;4986128;28;20186;-71
2021/07/30 03:43:09;;;;;;;5.07;4.57;;;19.80;99.90;;;;;;4991608;28;20926;-71
2021/07/30 03:45:34;;;;;;;5.60;4.53;;;19.50;99.90;;;;;;4991675;28;20453;-71
2021/07/30 03:48:00;;;;;;;4.97;4.40;;;19.60;99.90;;;;;;4991464;28;20495;-71
2021/07/30 03:50:26;;;;;;;7.00;4.33;;;19.50;99.90;;;;;;4983424;28;20226;-71
2021/07/30 03:52:51;;;;;;;5.00;4.13;;;19.60;99.90;;;;;;4981655;28;20190;-71
2021/07/30 03:55:17;;;;;;;5.20;4.20;;;19.40;99.90;;;;;;4990548;28;20743;-71
2021/07/30 03:57:43;;;;;;;5.40;4.40;;;19.30;99.90;;;;;;4991962;28;20269;-71
2021/07/30 04:00:09;;;;;;;5.30;4.77;;;19.50;99.90;;;;;;4971356;28;20206;-71
2021/07/30 04:02:35;;;;;;;8.60;4.77;;;19.60;99.90;;;;;;4995025;28;20178;-71
2021/07/30 04:05:00;;;;;;;6.80;4.50;;;19.00;99.90;;;;;;4990854;28;21165;-71
2021/07/30 04:07:26;;;;;;;5.67;4.50;;;19.10;99.90;;;;;;4988660;28;20194;-70
2021/07/30 04:09:54;;;;;;;4.60;3.60;;;18.80;99.90;;;;;;4994458;28;20182;-70
2021/07/30 04:12:21;;;;;;;5.47;4.53;;;19.10;99.90;;;;;;4988220;28;20196;-71
2021/07/30 04:14:46;;;;;;;4.57;4.17;;;19.30;99.90;;;;;;4991504;28;20543;-70
2021/07/30 04:17:12;;;;;;;4.57;3.97;;;19.40;99.90;;;;;;4994065;28;20923;-71
2021/07/30 04:19:43;;;;;;;3.93;3.53;;;19.60;99.90;;;;;;4993402;28;20193;-70
2021/07/30 04:22:12;;;;;;;5.50;4.20;;;19.50;99.90;;;;;;4989193;28;20186;-72
2021/07/30 04:24:39;;;;;;;4.93;4.03;;;19.50;99.90;;;;;;4974076;28;20425;-71
2021/07/30 04:27:05;;;;;;;5.47;3.70;;;19.50;99.90;;;;;;4988634;28;20433;-71
2021/07/30 04:29:31;;;;;;;4.83;3.63;;;19.20;99.90;;;;;;4986828;28;20941;-71
2021/07/30 04:31:59;;;;;;;4.80;4.30;;;19.40;99.90;;;;;;4992810;28;20433;-71
2021/07/30 04:34:25;;;;;;;6.10;4.37;;;19.40;99.90;;;;;;4988840;28;20218;-72
2021/07/30 04:36:50;;;;;;;5.50;4.90;;;19.30;99.90;;;;;;4970802;28;20445;-71
2021/07/30 04:39:16;;;;;;;6.67;4.07;;;19.40;99.90;;;;;;4987590;28;20198;-71
2021/07/30 04:41:41;;;;;;;5.67;4.40;;;19.30;99.90;;;;;;4987841;28;20197;-70
2021/07/30 04:44:07;;;;;;;4.77;4.37;;;19.30;99.90;;;;;;4988074;28;20201;-71
2021/07/30 04:46:33;;;;;;;4.70;4.30;;;18.90;99.90;;;;;;4988522;28;20232;-71
2021/07/30 04:48:58;;;;;;;5.00;4.50;;;18.70;99.90;;;;;;4988642;28;20192;-71
2021/07/30 04:51:24;;;;;;;5.53;4.50;;;18.40;99.90;;;;;;4988173;28;20224;-72
2021/07/30 04:53:50;;;;;;;6.37;5.17;;;18.50;99.90;;;;;;4989021;28;20221;-71
2021/07/30 04:56:18;;;;;;;5.80;5.20;;;18.80;99.90;;;;;;4972431;28;20206;-71
2021/07/30 04:58:44;;;;;;;5.30;4.70;;;18.60;99.90;;;;;;4988513;28;20444;-71
2021/07/30 05:01:09;;;;;;;6.70;4.57;;;18.50;99.90;;;;;;4988340;28;20778;-71
2021/07/30 05:03:35;;;;;;;6.20;4.73;;;18.20;99.90;;;;;;4986755;28;20196;-71
2021/07/30 05:06:17;;;;;;;6.10;4.77;;;18.00;99.90;;;;;;4987584;28;20719;-71
2021/07/30 05:08:44;;;;;;;5.73;4.53;;;18.00;99.90;;;;;;4989218;28;20216;-70
2021/07/30 05:11:11;;;;;;;12.10;4.70;;;18.20;99.90;;;;;;4987091;28;20421;-69
2021/07/30 05:13:41;;;;;;;4.90;4.40;;;18.30;99.90;;;;;;4984807;28;20461;-71
2021/07/30 05:16:11;;;;;;;8.27;5.20;;;18.40;99.90;;;;;;4985281;28;20453;-70
2021/07/30 05:18:37;;;;;;;7.33;4.43;;;18.50;99.90;;;;;;4986212;28;20428;-70
2021/07/30 05:21:12;;;;;;;8.03;5.20;;;18.40;99.90;;;;;;4988157;28;20431;-71
2021/07/30 05:23:38;;;;;;;6.00;4.50;;;18.50;99.90;;;;;;4984717;28;20452;-70
2021/07/30 05:26:04;;;;;;;7.40;4.63;;;18.70;99.90;;;;;;4986528;28;20463;-70
2021/07/30 05:28:30;;;;;;;8.97;4.43;;;18.70;99.90;;;;;;4984361;28;20413;-71
2021/07/30 05:30:57;;;;;;;6.80;3.93;;;18.60;99.90;;;;;;4985929;28;20435;-70
2021/07/30 05:33:24;;;;;;;4.83;4.33;;;18.60;99.90;;;;;;4986682;28;20453;-70
2021/07/30 05:35:50;;;;;;;5.97;4.27;;;18.50;99.90;;;;;;4986434;28;20464;-71
2021/07/30 05:38:16;;;;;;;5.73;4.23;;;18.30;99.90;;;;;;4986779;28;20482;-71
2021/07/30 05:40:42;;;;;;;5.30;4.00;;;18.20;99.90;;;;;;4985623;28;20264;-71
2021/07/30 05:43:08;;;;;;;17.37;5.30;;;18.20;99.90;;;;;;4985049;28;20221;-71
2021/07/30 05:45:34;;;;;;;5.47;4.23;;;18.30;99.90;;;;;;4996164;28;20459;-71
2021/07/30 05:48:00;;;;;;;5.13;4.30;;;18.40;99.90;;;;;;4989049;28;20209;-71
2021/07/30 05:50:25;;;;;;;4.93;4.43;;;18.10;99.90;;;;;;4989981;28;20213;-71
2021/07/30 05:52:52;;;;;;;8.30;4.87;;;18.30;99.90;;;;;;4989126;28;20190;-71
2021/07/30 05:55:18;;;;;;;4.80;4.40;;;18.10;99.90;;;;;;4987718;28;20218;-71
2021/07/30 05:57:43;;;;;;;6.27;4.50;;;18.40;99.90;;;;;;4982546;28;20437;-72
2021/07/30 06:00:10;;;;;;;5.57;4.90;;;18.30;99.90;;;;;;4946923;28;20875;-71
2021/07/30 06:02:35;;;;;;;5.43;4.50;;;18.50;99.90;;;;;;4980461;28;20186;-70
2021/07/30 06:05:01;;;;;;;5.10;4.60;;;18.70;99.90;;;;;;4977821;28;20469;-71
2021/07/30 06:07:27;;;;;;;4.90;4.37;;;18.90;99.90;;;;;;4978431;28;20198;-71
2021/07/30 06:09:52;;;;;;;6.93;4.93;;;18.80;99.90;;;;;;4981820;28;20204;-71
2021/07/30 06:12:18;;;;;;;6.87;5.70;;;18.70;99.90;;;;;;4978190;28;20726;-70
2021/07/30 06:14:44;;;;;;;7.83;5.57;;;18.60;99.90;;;;;;4980110;28;20306;-70
2021/07/30 06:17:11;;;;;;;11.13;5.07;;;18.60;99.90;;;;;;4978705;28;20228;-71
2021/07/30 06:19:36;;;;;;;5.07;4.57;;;18.60;99.90;;;;;;4978410;28;20437;-70
2021/07/30 06:22:02;;;;;;;6.67;5.10;;;18.80;99.90;;;;;;4979491;28;20440;-71
2021/07/30 06:24:28;;;;;;;7.50;5.53;;;18.80;99.90;;;;;;4983107;28;20505;-70
2021/07/30 06:26:54;;;;;;;6.20;4.50;;;19.10;99.90;;;;;;4985205;28;20437;-71
2021/07/30 06:29:19;;;;;;;5.13;4.63;;;19.10;99.90;;;;;;4987264;28;20620;-71
2021/07/30 06:31:45;;;;;;;6.70;4.10;;;19.20;99.90;;;;;;4985203;28;20202;-71
2021/07/30 06:34:11;;;;;;;5.47;4.40;;;19.10;99.90;;;;;;4984698;28;20597;-72
2021/07/30 06:36:36;;;;;;;7.07;4.83;;;19.40;99.90;;;;;;4983961;28;20213;-71
2021/07/30 06:39:03;;;;;;;5.10;4.40;;;19.20;99.90;;;;;;4982472;28;20182;-71
2021/07/30 06:41:28;;;;;;;5.57;4.97;;;19.30;99.90;;;;;;4984801;28;20315;-71
2021/07/30 06:43:54;;;;;;;5.70;4.50;;;19.20;99.90;;;;;;4980275;28;20480;-70
2021/07/30 06:46:20;;;;;;;8.13;4.97;;;19.30;99.90;;;;;;4984370;28;20221;-71
2021/07/30 06:48:46;;;;;;;4.83;4.37;;;19.40;99.90;;;;;;4983032;28;20437;-71
2021/07/30 06:51:13;;;;;;;6.50;5.30;;;19.40;99.90;;;;;;4979455;28;20452;-71
2021/07/30 06:53:39;;;;;;;13.07;5.70;;;19.50;99.90;;;;;;4984109;28;20189;-71
2021/07/30 06:56:14;;;;;;;7.03;4.33;;;19.50;99.90;;;;;;4981417;28;20455;-71
2021/07/30 06:58:41;;;;;;;5.37;4.87;;;19.70;99.90;;;;;;4980626;28;20437;-72
2021/07/30 07:01:07;;;;;;;5.30;4.57;;;19.70;99.90;;;;;;4984663;28;20447;-72
2021/07/30 07:03:33;;;;;;;7.17;4.90;;;19.60;99.90;;;;;;4981702;28;20445;-71
2021/07/30 07:05:59;;;;;;;7.70;4.70;;;19.70;99.90;;;;;;4980698;28;20460;-71
2021/07/30 07:08:25;;;;;;;8.13;5.00;;;19.70;99.90;;;;;;4981748;28;20455;-71
2021/07/30 07:10:51;;;;;;;5.27;4.20;;;19.70;99.90;;;;;;4978304;28;20437;-71
2021/07/30 07:13:17;;;;;;;5.30;4.77;;;19.80;99.90;;;;;;4981044;28;20548;-70
2021/07/30 07:15:43;;;;;;;5.37;4.87;;;19.80;99.90;;;;;;4981310;28;20489;-71
2021/07/30 07:18:10;;;;;;;4.73;4.20;;;19.90;99.90;;;;;;4974566;28;20178;-70
2021/07/30 07:20:35;;;;;;;6.90;4.77;;;19.80;99.90;;;;;;4987226;28;20437;-71
2021/07/30 07:23:01;;;;;;;6.33;4.67;;;19.90;99.90;;;;;;4963294;28;20433;-71
2021/07/30 07:25:27;;;;;;;5.23;4.40;;;20.00;99.90;;;;;;4980510;28;20573;-71
2021/07/30 07:27:52;;;;;;;8.17;5.10;;;20.00;99.90;;;;;;4981464;28;20289;-71
2021/07/30 07:30:19;;;;;;;5.80;4.97;;;20.20;99.90;;;;;;4982616;28;20275;-72
2021/07/30 07:32:45;;;;;;;5.87;4.70;;;20.20;99.90;;;;;;4981870;28;20196;-69
2021/07/30 07:35:11;;;;;;;4.90;4.40;;;20.30;99.90;;;;;;4980748;28;20563;-71
2021/07/30 07:37:37;;;;;;;5.93;4.70;;;20.30;99.90;;;;;;4979620;28;20536;-70
2021/07/30 07:40:05;;;;;;;5.40;4.30;;;20.50;99.90;;;;;;4982293;28;20566;-72
2021/07/30 07:42:30;;;;;;;4.80;3.83;;;20.60;99.90;;;;;;4983133;28;20425;-71
2021/07/30 07:44:56;;;;;;;4.40;4.00;;;20.60;99.90;;;;;;4980832;28;20534;-70
2021/07/30 07:47:22;;;;;;;4.20;3.80;;;20.70;99.90;;;;;;4982337;28;20208;-72
2021/07/30 07:49:48;;;;;;;4.97;4.07;;;20.70;99.90;;;;;;4981491;28;20205;-72
2021/07/30 07:52:14;;;;;;;5.07;4.57;;;20.60;99.90;;;;;;4980833;28;20212;-71
2021/07/30 07:54:39;;;;;;;4.53;4.00;;;20.60;99.90;;;;;;4980698;28;20218;-73
2021/07/30 07:57:06;;;;;;;5.10;4.33;;;20.60;99.90;;;;;;4982758;28;20433;-70
2021/07/30 07:59:36;;;;;;;5.30;4.03;;;20.60;99.90;;;;;;4980475;28;20223;-72
2021/07/30 08:02:04;;;;;;;8.10;5.77;;;20.70;99.90;;;;;;4980973;28;21549;-71
2021/07/30 08:04:31;;;;;;;5.70;4.33;;;20.80;99.90;;;;;;4975827;28;20449;-70
2021/07/30 08:06:56;;;;;;;4.63;3.93;;;20.80;99.90;;;;;;4982568;28;20452;-70
2021/07/30 08:09:22;;;;;;;4.23;3.83;;;20.80;99.90;;;;;;4983613;28;20437;-71
2021/07/30 08:11:48;;;;;;;5.33;4.10;;;20.90;99.90;;;;;;4983730;28;20186;-71
2021/07/30 08:14:13;;;;;;;6.00;4.30;;;21.00;99.90;;;;;;4985256;28;20213;-70
2021/07/30 08:16:40;;;;;;;5.17;3.93;;;21.00;99.90;;;;;;4983909;28;20302;-70
2021/07/30 08:19:05;;;;;;;5.73;4.43;;;21.10;99.90;;;;;;4982919;28;20193;-72
2021/07/30 08:21:31;;;;;;;5.60;5.10;;;21.20;99.90;;;;;;4984394;28;20440;-70
2021/07/30 08:23:57;;;;;;;5.10;4.00;;;21.30;99.90;;;;;;4981288;28;20204;-72
2021/07/30 08:26:22;;;;;;;5.60;4.40;;;21.40;99.90;;;;;;4982447;28;20232;-70
2021/07/30 08:28:48;;;;;;;4.30;3.90;;;21.50;99.90;;;;;;4981537;28;20445;-71
2021/07/30 08:31:25;;;;;;;4.17;3.70;;;21.50;99.90;;;;;;4978998;28;20198;-72
2021/07/30 08:33:51;;;;;;;4.40;4.00;;;21.60;99.90;;;;;;4983011;28;20209;-71
2021/07/30 08:36:17;;;;;;;6.17;4.37;;;21.60;99.90;;;;;;4980430;28;20475;-71
2021/07/30 08:38:42;;;;;;;5.10;4.27;;;21.70;99.90;;;;;;4974869;28;20449;-73
2021/07/30 08:41:08;;;;;;;6.73;4.43;;;21.70;99.90;;;;;;4979725;28;20572;-71
2021/07/30 08:43:34;;;;;;;6.20;4.10;;;21.80;99.90;;;;;;4981737;28;20198;-71
2021/07/30 08:46:00;;;;;;;4.50;4.10;;;21.90;99.90;;;;;;4980859;28;20680;-71
2021/07/30 08:48:26;;;;;;;5.00;4.50;;;21.90;99.90;;;;;;4979289;28;20333;-71
2021/07/30 08:50:55;;;;;;;7.07;5.17;;;22.00;99.90;;;;;;4979557;28;20261;-72
2021/07/30 08:53:26;;;;;;;5.93;4.80;;;22.00;99.90;;;;;;4983729;28;20777;-71
2021/07/30 08:55:53;;;;;;;5.93;4.60;;;22.20;99.90;;;;;;4980029;28;20485;-70
2021/07/30 08:58:19;;;;;;;5.97;4.77;;;22.30;99.90;;;;;;4980459;28;20441;-70
2021/07/30 09:00:45;;;;;;;4.43;4.10;;;22.30;99.90;;;;;;4977796;28;20969;-70
2021/07/30 09:03:11;;;;;;;5.23;4.73;;;22.40;99.90;;;;;;4980633;28;20437;-71
2021/07/30 09:05:37;;;;;;;7.30;4.30;;;22.40;99.90;;;;;;4980828;28;20457;-71
2021/07/30 09:08:07;;;;;;;5.50;5.00;;;22.40;99.90;;;;;;4980123;28;21117;-71
2021/07/30 09:10:35;;;;;;;5.30;4.77;;;22.50;99.90;;;;;;4983223;28;20449;-71
2021/07/30 09:13:19;;;;;;;5.60;4.90;;;22.60;99.90;;;;;;4966386;28;20444;-72
2021/07/30 09:15:59;;;;;;;7.17;5.03;;;22.60;99.90;;;;;;4981037;28;22390;-72
2021/07/30 09:18:44;;;;;;;4.63;4.23;;;22.70;99.90;;;;;;4980089;28;20480;-71
2021/07/30 09:21:21;;;;;;;5.00;4.60;;;22.80;99.90;;;;;;4981410;28;21138;-71
2021/07/30 09:23:49;;;;;;;5.87;4.60;;;22.80;99.90;;;;;;4978878;28;20446;-71
2021/07/30 09:26:44;;;;;;;9.20;5.00;;;22.90;99.90;;;;;;4982736;28;20467;-71
2021/07/30 09:29:21;;;;;;;4.80;4.30;;;23.00;99.90;;;;;;4981780;28;20464;-72
2021/07/30 09:31:56;;;;;;;5.57;5.07;;;23.10;99.90;;;;;;4983806;28;20445;-72
2021/07/30 09:34:26;;;;;;;6.77;4.70;;;23.20;99.90;;;;;;4980598;28;20475;-72
2021/07/30 09:36:53;;;;;;;5.00;4.60;;;23.20;99.90;;;;;;4980414;28;20432;-70
2021/07/30 09:39:23;;;;;;;5.80;4.83;;;23.30;99.90;;;;;;4982558;28;20485;-71
2021/07/30 09:41:59;;;;;;;6.60;5.60;;;23.40;99.90;;;;;;4981244;28;20428;-70
2021/07/30 09:44:26;;;;;;;6.53;4.63;;;23.40;99.90;;;;;;4980985;28;20448;-70
2021/07/30 09:47:02;;;;;;;5.07;4.63;;;23.40;99.90;;;;;;4986341;28;20539;-70
2021/07/30 09:49:59;;;;;;;5.80;4.40;;;23.40;99.90;;;;;;4977602;28;20483;-71
2021/07/30 09:52:25;;;;;;;4.80;4.30;;;23.50;99.90;;;;;;4981687;28;20543;-71
2021/07/30 09:54:52;;;;;;;6.17;4.83;;;23.60;99.90;;;;;;4981699;28;20579;-71
2021/07/30 09:57:26;;;;;;;5.27;4.63;;;23.70;99.90;;;;;;4984939;28;20634;-71
2021/07/30 09:59:56;;;;;;;5.80;4.10;;;23.70;99.90;;;;;;4981756;28;20443;-71
2021/07/30 10:02:28;;;;;;;6.30;4.90;;;23.80;99.90;;;;;;4984174;28;20445;-71
2021/07/30 10:04:54;;;;;;;5.13;4.70;;;23.90;99.90;;;;;;4976212;28;20457;-70
2021/07/30 10:07:24;;;;;;;4.93;4.43;;;24.00;99.90;;;;;;4971294;28;20471;-71
2021/07/30 10:10:13;;;;;;;4.87;4.37;;;24.00;99.90;;;;;;4982320;28;20225;-70
2021/07/30 10:12:48;;;;;;;4.93;4.43;;;24.10;99.90;;;;;;4981067;28;20424;-71
2021/07/30 10:15:14;;;;;;;4.77;4.37;;;24.10;99.90;;;;;;4979689;28;20530;-71
2021/07/30 10:17:48;;;;;;;5.57;5.07;;;24.10;99.90;;;;;;4978436;28;20445;-70
2021/07/30 10:20:16;;;;;;;4.57;4.13;;;24.20;99.90;;;;;;4977596;28;20435;-70
2021/07/30 10:22:50;;;;;;;4.97;4.47;;;24.30;99.90;;;;;;4976917;28;20474;-70
2021/07/30 10:25:33;;;;;;;4.97;4.53;;;24.30;99.90;;;;;;4979814;28;20842;-71
2021/07/30 10:28:06;;;;;;;10.40;4.90;;;24.30;99.90;;;;;;4978328;28;20440;-69
2021/07/30 10:31:06;;;;;;;7.30;4.57;;;24.30;99.90;;;;;;4979605;28;21038;-71
2021/07/30 10:33:37;;;;;;;5.10;4.60;;;24.30;99.90;;;;;;4980347;28;20449;-71
2021/07/30 10:36:03;;;;;;;5.37;4.87;;;24.40;99.90;;;;;;4978823;28;20550;-71
2021/07/30 10:38:29;;;;;;;5.20;4.70;;;24.40;99.90;;;;;;4964436;28;20435;-70
2021/07/30 10:40:57;;;;;;;7.90;5.67;;;24.40;99.90;;;;;;4981524;28;20519;-70
2021/07/30 10:43:28;;;;;;;7.57;5.00;;;24.50;99.90;;;;;;4980700;28;20975;-71
2021/07/30 10:46:05;;;;;;;4.83;4.43;;;24.60;99.90;;;;;;4982859;28;20449;-71
2021/07/30 10:48:38;;;;;;;6.53;4.80;;;24.80;99.90;;;;;;4980136;28;20450;-71
2021/07/30 10:51:23;;;;;;;7.30;5.03;;;24.80;99.90;;;;;;4980039;28;20439;-71
2021/07/30 10:53:50;;;;;;;6.00;4.40;;;24.90;99.90;;;;;;4981102;28;20445;-71
2021/07/30 10:56:21;;;;;;;6.60;4.30;;;25.00;99.90;;;;;;4982374;28;20445;-70
2021/07/30 10:58:52;;;;;;;6.63;4.93;;;24.80;99.90;;;;;;4980450;28;20444;-71
2021/07/30 11:01:22;;;;;;;5.93;5.30;;;24.90;99.90;;;;;;4981007;28;20503;-71
2021/07/30 11:03:50;;;;;;;5.37;4.80;;;24.90;99.90;;;;;;4981509;28;20440;-71
2021/07/30 11:06:39;;;;;;;5.40;4.90;;;24.90;99.90;;;;;;4962397;28;20887;-71
2021/07/30 11:09:05;;;;;;;8.33;4.43;;;25.00;99.90;;;;;;4981085;28;20441;-71
2021/07/30 11:11:53;;;;;;;4.87;4.47;;;25.10;99.90;;;;;;4985749;28;20823;-71
2021/07/30 11:14:34;;;;;;;5.50;5.00;;;25.00;99.90;;;;;;4984492;28;20303;-71
2021/07/30 11:17:02;;;;;;;5.23;4.73;;;25.00;99.90;;;;;;4986580;28;20436;-70
2021/07/30 11:19:35;;;;;;;5.70;5.20;;;25.20;99.90;;;;;;5002891;28;20416;-71
2021/07/30 11:22:02;;;;;;;5.97;5.17;;;25.30;99.90;;;;;;4998196;28;20425;-71
2021/07/30 11:24:29;;;;;;;6.83;5.67;;;25.60;99.90;;;;;;4983802;28;20449;-71
2021/07/30 11:26:55;;;;;;;5.73;5.23;;;25.80;99.90;;;;;;4986024;28;20432;-71
2021/07/30 11:29:22;;;;;;;6.07;5.47;;;25.90;99.90;;;;;;4982672;28;20448;-71
2021/07/30 11:32:00;;;;;;;6.80;5.20;;;26.10;99.90;;;;;;4971513;28;20248;-71
2021/07/30 11:34:33;;;;;;;5.47;4.97;;;26.30;99.90;;;;;;4983323;28;20460;-71
2021/07/30 11:37:07;;;;;;;5.43;4.93;;;26.50;99.90;;;;;;4986194;28;20443;-71
2021/07/30 11:39:39;;;;;;;5.43;4.50;;;26.30;99.90;;;;;;4986257;28;20505;-70
2021/07/30 11:42:07;;;;;;;5.90;5.30;;;26.20;99.90;;;;;;4983852;28;20448;-70
2021/07/30 11:44:52;;;;;;;5.17;4.63;;;26.20;99.90;;;;;;4987220;28;20496;-71
2021/07/30 11:47:20;;;;;;;6.30;5.73;;;26.50;99.90;;;;;;4985384;28;21357;-71
2021/07/30 11:49:47;;;;;;;5.80;5.20;;;26.70;99.90;;;;;;4985449;28;20495;-72
2021/07/30 11:52:22;;;;;;;6.37;5.00;;;26.90;99.90;;;;;;4984370;28;20893;-72
2021/07/30 11:54:48;;;;;;;5.90;5.40;;;27.10;99.90;;;;;;4984912;28;20476;-71
2021/07/30 11:57:27;;;;;;;5.20;4.80;;;27.20;99.90;;;;;;4984053;28;20437;-71
2021/07/30 11:59:53;;;;;;;5.00;4.60;;;27.20;99.90;;;;;;4982189;28;20448;-71
2021/07/30 12:02:19;;;;;;;4.77;4.27;;;27.30;99.90;;;;;;4986863;28;20807;-70
2021/07/30 12:05:03;;;;;;;6.73;6.13;;;27.50;99.90;;;;;;4968439;28;20457;-71
2021/07/30 12:07:39;;;;;;;5.70;5.20;;;27.40;99.90;;;;;;4981294;28;20289;-71
2021/07/30 12:10:08;;;;;;;6.80;6.20;;;27.80;99.90;;;;;;4983637;28;20432;-71
2021/07/30 12:12:42;;;;;;;5.50;5.00;;;28.40;99.90;;;;;;4984996;28;20435;-71
2021/07/30 12:15:09;;;;;;;9.40;4.60;;;29.20;99.90;;;;;;4985799;28;20484;-70
2021/07/30 12:17:35;;;;;;;6.13;4.50;;;29.20;99.90;;;;;;4983750;28;20433;-70
2021/07/30 12:20:06;;;;;;;5.93;5.43;;;30.40;99.90;;;;;;4985220;28;20440;-71
2021/07/30 12:22:34;;;;;;;5.93;5.43;;;31.00;99.90;;;;;;4984828;28;20417;-71
2021/07/30 12:25:00;;;;;;;6.87;6.20;;;31.70;99.90;;;;;;4983193;28;20467;-71
2021/07/30 12:27:26;;;;;;;6.27;5.40;;;31.70;99.90;;;;;;4984458;28;20452;-70
2021/07/30 12:29:51;;;;;;;5.73;5.20;;;32.20;98.90;;;;;;4983773;28;20423;-71
2021/07/30 12:32:22;;;;;;;6.07;5.57;;;32.10;98.00;;;;;;4983607;28;20229;-71
2021/07/30 12:34:58;;;;;;;6.43;5.30;;;31.80;97.00;;;;;;4983867;28;20218;-71
2021/07/30 12:37:26;;;;;;;4.97;4.57;;;31.90;96.30;;;;;;4983066;28;20462;-71
2021/07/30 12:39:53;;;;;;;5.77;5.20;;;32.40;96.00;;;;;;4982098;28;20425;-71
2021/07/30 12:42:19;;;;;;;5.90;5.00;;;31.40;95.90;;;;;;4983799;28;20429;-71
2021/07/30 12:45:07;;;;;;;6.00;5.50;;;31.90;96.00;;;;;;4983416;28;21018;-71
2021/07/30 12:47:35;;;;;;;6.77;5.30;;;31.60;95.70;;;;;;4983684;28;20827;-71
2021/07/30 12:50:21;;;;;;;5.80;5.33;;;32.10;94.60;;;;;;4983311;28;20545;-71
2021/07/30 12:53:10;;;;;;;12.33;5.93;;;32.80;93.20;;;;;;4983849;28;20994;-71